Roche Harbor, Washington
Current Conditions -  °F | °C
As of 10:27 AM on Wednesday 26 Nov 2014 (Local Time) from KFHR Reporting Station
Overcast Overcast  
Wind Chill: 53°   Ceiling: 300
Heat Index: 53°   Visibility: 10mi
Dew Point: 51°   Wind: 7mph
Humidity: 93%   Direction: 150°SSE
Pressure: 30.06"   Gusts: NA
Location:  48.5377°N, 123.083°W
Report Text: KFHR 261827Z AUTO 15006KT 10SM BKN003 OVC014 12/11 A3006 RMK AO2 T01170106
Loading
Personal Weather Stations






























Interactive Weather Map New forecast layout! Learn more

10-Day Weather Forecast

Advertisements
Track Severe Weather on mobile